sensor_id;sensor_type;location;lat;lon;timestamp;temperature;humidity
39997;DHT22;25688;52.338;21.072;2024-02-21T01:27:17;4.10;99.90
39997;DHT22;25688;52.338;21.072;2024-02-21T01:29:42;4.10;99.90
39997;DHT22;25688;52.338;21.072;2024-02-21T01:32:08;4.10;99.90
39997;DHT22;25688;52.338;21.072;2024-02-21T01:34:34;4.10;99.90
39997;DHT22;25688;52.338;21.072;2024-02-21T01:36:59;4.10;99.90
39997;DHT22;25688;52.338;21.072;2024-02-21T01:39:30;4.10;99.90
39997;DHT22;25688;52.338;21.072;2024-02-21T01:41:55;4.10;99.90
39997;DHT22;25688;52.338;21.072;2024-02-21T01:44:21;4.20;99.90
39997;DHT22;25688;52.338;21.072;2024-02-21T01:46:47;4.20;99.90
39997;DHT22;25688;52.338;21.072;2024-02-21T01:49:13;4.20;99.90
39997;DHT22;25688;52.338;21.072;2024-02-21T01:51:39;4.30;99.90
39997;DHT22;25688;52.338;21.072;2024-02-21T01:54:06;4.30;99.90
39997;DHT22;25688;52.338;21.072;2024-02-21T01:56:32;4.40;99.90
39997;DHT22;25688;52.338;21.072;2024-02-21T01:58:58;4.40;99.90
39997;DHT22;25688;52.338;21.072;2024-02-21T02:01:24;4.40;99.90
39997;DHT22;25688;52.338;21.072;2024-02-21T02:03:51;4.50;99.90
39997;DHT22;25688;52.338;21.072;2024-02-21T02:06:18;4.40;99.90
39997;DHT22;25688;52.338;21.072;2024-02-21T02:08:44;4.50;99.90
39997;DHT22;25688;52.338;21.072;2024-02-21T02:11:10;4.50;99.90
39997;DHT22;25688;52.338;21.072;2024-02-21T02:13:38;4.50;99.90
39997;DHT22;25688;52.338;21.072;2024-02-21T02:16:04;4.50;99.90
39997;DHT22;25688;52.338;21.072;2024-02-21T02:18:30;4.50;99.90
39997;DHT22;25688;52.338;21.072;2024-02-21T02:20:56;4.50;99.90
39997;DHT22;25688;52.338;21.072;2024-02-21T02:23:30;4.60;99.90
39997;DHT22;25688;52.338;21.072;2024-02-21T02:25:57;4.60;99.90
39997;DHT22;25688;52.338;21.072;2024-02-21T02:28:22;4.60;99.90
39997;DHT22;25688;52.338;21.072;2024-02-21T02:30:49;4.60;99.90
39997;DHT22;25688;52.338;21.072;2024-02-21T02:33:15;4.60;99.90
39997;DHT22;25688;52.338;21.072;2024-02-21T02:35:43;4.60;99.90
39997;DHT22;25688;52.338;21.072;2024-02-21T02:38:08;4.60;99.90
39997;DHT22;25688;52.338;21.072;2024-02-21T02:40:35;4.60;99.90
39997;DHT22;25688;52.338;21.072;2024-02-21T02:43:01;4.60;99.90
39997;DHT22;25688;52.338;21.072;2024-02-21T02:45:27;4.60;99.90
39997;DHT22;25688;52.338;21.072;2024-02-21T02:47:53;4.60;99.90
39997;DHT22;25688;52.338;21.072;2024-02-21T02:50:26;4.60;99.90
39997;DHT22;25688;52.338;21.072;2024-02-21T02:52:53;4.60;99.90
39997;DHT22;25688;52.338;21.072;2024-02-21T02:55:19;4.60;99.90
39997;DHT22;25688;52.338;21.072;2024-02-21T02:57:45;4.60;99.90
39997;DHT22;25688;52.338;21.072;2024-02-21T03:00:12;4.60;99.90
39997;DHT22;25688;52.338;21.072;2024-02-21T03:02:39;4.60;99.90
39997;DHT22;25688;52.338;21.072;2024-02-21T03:05:15;4.60;99.90
39997;DHT22;25688;52.338;21.072;2024-02-21T03:07:41;4.60;99.90
39997;DHT22;25688;52.338;21.072;2024-02-21T03:10:08;4.50;99.90
39997;DHT22;25688;52.338;21.072;2024-02-21T03:12:34;4.40;99.90
39997;DHT22;25688;52.338;21.072;2024-02-21T03:15:00;4.40;99.90
39997;DHT22;25688;52.338;21.072;2024-02-21T03:17:26;4.30;99.90
39997;DHT22;25688;52.338;21.072;2024-02-21T03:19:54;4.20;99.90
39997;DHT22;25688;52.338;21.072;2024-02-21T03:22:21;4.20;99.90
39997;DHT22;25688;52.338;21.072;2024-02-21T03:24:47;4.10;99.90
39997;DHT22;25688;52.338;21.072;2024-02-21T03:27:13;4.10;99.90
39997;DHT22;25688;52.338;21.072;2024-02-21T03:29:39;4.10;99.90
39997;DHT22;25688;52.338;21.072;2024-02-21T03:32:05;4.10;99.90
39997;DHT22;25688;52.338;21.072;2024-02-21T03:34:31;4.10;99.90
39997;DHT22;25688;52.338;21.072;2024-02-21T03:36:56;4.10;99.90
39997;DHT22;25688;52.338;21.072;2024-02-21T03:39:22;4.10;99.90
39997;DHT22;25688;52.338;21.072;2024-02-21T03:41:48;4.00;99.90
39997;DHT22;25688;52.338;21.072;2024-02-21T03:44:14;4.00;99.90
39997;DHT22;25688;52.338;21.072;2024-02-21T03:46:40;4.00;99.90
39997;DHT22;25688;52.338;21.072;2024-02-21T03:49:06;4.00;99.90
39997;DHT22;25688;52.338;21.072;2024-02-21T03:51:32;4.00;99.90
39997;DHT22;25688;52.338;21.072;2024-02-21T03:53:58;4.00;99.90
39997;DHT22;25688;52.338;21.072;2024-02-21T03:56:24;3.90;99.90
39997;DHT22;25688;52.338;21.072;2024-02-21T03:58:50;3.90;99.90
39997;DHT22;25688;52.338;21.072;2024-02-21T04:01:16;3.90;99.90
39997;DHT22;25688;52.338;21.072;2024-02-21T04:03:43;3.90;99.90
39997;DHT22;25688;52.338;21.072;2024-02-21T04:06:09;3.90;99.90
39997;DHT22;25688;52.338;21.072;2024-02-21T04:08:35;4.00;99.90
39997;DHT22;25688;52.338;21.072;2024-02-21T04:11:01;4.00;99.90
39997;DHT22;25688;52.338;21.072;2024-02-21T04:13:27;4.00;99.90
39997;DHT22;25688;52.338;21.072;2024-02-21T04:15:53;4.00;99.90
39997;DHT22;25688;52.338;21.072;2024-02-21T04:18:19;4.00;99.90
39997;DHT22;25688;52.338;21.072;2024-02-21T04:20:45;4.00;99.90
39997;DHT22;25688;52.338;21.072;2024-02-21T04:23:10;4.10;99.90
39997;DHT22;25688;52.338;21.072;2024-02-21T04:25:36;4.10;99.90
39997;DHT22;25688;52.338;21.072;2024-02-21T04:28:02;4.10;99.90
39997;DHT22;25688;52.338;21.072;2024-02-21T04:30:28;4.20;99.90
39997;DHT22;25688;52.338;21.072;2024-02-21T04:32:54;4.30;99.90
39997;DHT22;25688;52.338;21.072;2024-02-21T04:35:20;4.20;99.90
39997;DHT22;25688;52.338;21.072;2024-02-21T04:37:46;4.30;99.90
39997;DHT22;25688;52.338;21.072;2024-02-21T04:40:12;4.30;99.90
39997;DHT22;25688;52.338;21.072;2024-02-21T04:42:39;4.40;99.90
39997;DHT22;25688;52.338;21.072;2024-02-21T04:45:06;4.40;99.90
39997;DHT22;25688;52.338;21.072;2024-02-21T04:47:31;4.40;99.90
39997;DHT22;25688;52.338;21.072;2024-02-21T04:49:57;4.40;99.90
39997;DHT22;25688;52.338;21.072;2024-02-21T04:52:23;4.50;99.90
39997;DHT22;25688;52.338;21.072;2024-02-21T04:54:49;4.50;99.90
39997;DHT22;25688;52.338;21.072;2024-02-21T04:57:14;4.50;99.90
39997;DHT22;25688;52.338;21.072;2024-02-21T04:59:45;4.60;99.90
39997;DHT22;25688;52.338;21.072;2024-02-21T05:02:13;4.60;99.90
39997;DHT22;25688;52.338;21.072;2024-02-21T05:04:39;4.60;99.90
39997;DHT22;25688;52.338;21.072;2024-02-21T05:07:07;4.60;99.90
39997;DHT22;25688;52.338;21.072;2024-02-21T05:09:32;4.60;99.90
39997;DHT22;25688;52.338;21.072;2024-02-21T05:11:58;4.60;99.90
39997;DHT22;25688;52.338;21.072;2024-02-21T05:14:27;4.70;99.90
39997;DHT22;25688;52.338;21.072;2024-02-21T05:16:53;4.70;99.90
39997;DHT22;25688;52.338;21.072;2024-02-21T05:19:19;4.70;99.90
39997;DHT22;25688;52.338;21.072;2024-02-21T05:21:45;4.70;99.90
39997;DHT22;25688;52.338;21.072;2024-02-21T05:24:10;4.70;99.90
39997;DHT22;25688;52.338;21.072;2024-02-21T05:26:36;4.70;99.90
39997;DHT22;25688;52.338;21.072;2024-02-21T05:29:02;4.70;99.90
39997;DHT22;25688;52.338;21.072;2024-02-21T05:34:19;4.70;99.90
39997;DHT22;25688;52.338;21.072;2024-02-21T05:36:45;4.70;99.90
39997;DHT22;25688;52.338;21.072;2024-02-21T05:39:14;4.70;99.90
39997;DHT22;25688;52.338;21.072;2024-02-21T05:41:40;4.70;99.90
39997;DHT22;25688;52.338;21.072;2024-02-21T05:44:06;4.70;99.90
39997;DHT22;25688;52.338;21.072;2024-02-21T05:46:32;4.80;99.90
39997;DHT22;25688;52.338;21.072;2024-02-21T05:48:57;4.80;99.90
39997;DHT22;25688;52.338;21.072;2024-02-21T05:51:23;4.80;99.90
39997;DHT22;25688;52.338;21.072;2024-02-21T05:53:49;4.80;99.90
39997;DHT22;25688;52.338;21.072;2024-02-21T05:56:15;4.90;99.90
39997;DHT22;25688;52.338;21.072;2024-02-21T05:58:41;4.90;99.90
39997;DHT22;25688;52.338;21.072;2024-02-21T06:01:07;4.90;99.90
39997;DHT22;25688;52.338;21.072;2024-02-21T06:03:33;4.90;99.90
39997;DHT22;25688;52.338;21.072;2024-02-21T06:06:00;5.00;99.90
39997;DHT22;25688;52.338;21.072;2024-02-21T06:08:26;5.00;99.90
39997;DHT22;25688;52.338;21.072;2024-02-21T06:10:52;5.10;99.90
39997;DHT22;25688;52.338;21.072;2024-02-21T06:13:28;5.10;99.90
39997;DHT22;25688;52.338;21.072;2024-02-21T06:15:54;5.10;99.90
39997;DHT22;25688;52.338;21.072;2024-02-21T06:18:20;5.20;99.90
39997;DHT22;25688;52.338;21.072;2024-02-21T06:20:46;5.20;99.90
39997;DHT22;25688;52.338;21.072;2024-02-21T06:23:16;5.20;99.90
39997;DHT22;25688;52.338;21.072;2024-02-21T06:25:43;5.30;99.90
39997;DHT22;25688;52.338;21.072;2024-02-21T06:28:09;5.30;99.90
39997;DHT22;25688;52.338;21.072;2024-02-21T06:30:35;5.40;99.90
39997;DHT22;25688;52.338;21.072;2024-02-21T06:33:01;5.40;99.90
39997;DHT22;25688;52.338;21.072;2024-02-21T06:35:28;5.40;99.90
39997;DHT22;25688;52.338;21.072;2024-02-21T06:37:54;5.50;99.90
39997;DHT22;25688;52.338;21.072;2024-02-21T06:40:23;5.50;99.90
39997;DHT22;25688;52.338;21.072;2024-02-21T06:42:52;5.60;99.90
39997;DHT22;25688;52.338;21.072;2024-02-21T06:45:18;5.60;99.90
39997;DHT22;25688;52.338;21.072;2024-02-21T06:47:43;5.60;99.90
39997;DHT22;25688;52.338;21.072;2024-02-21T06:50:10;5.60;99.90
39997;DHT22;25688;52.338;21.072;2024-02-21T06:52:36;5.70;99.90
39997;DHT22;25688;52.338;21.072;2024-02-21T06:55:02;5.70;99.90
39997;DHT22;25688;52.338;21.072;2024-02-21T06:57:29;5.70;99.90
39997;DHT22;25688;52.338;21.072;2024-02-21T06:59:55;5.70;99.90
39997;DHT22;25688;52.338;21.072;2024-02-21T07:02:21;5.70;99.90
39997;DHT22;25688;52.338;21.072;2024-02-21T07:04:47;5.70;99.90
39997;DHT22;25688;52.338;21.072;2024-02-21T07:07:12;5.80;99.90
39997;DHT22;25688;52.338;21.072;2024-02-21T07:09:38;5.80;99.90
39997;DHT22;25688;52.338;21.072;2024-02-21T07:12:04;5.80;99.90
39997;DHT22;25688;52.338;21.072;2024-02-21T07:14:32;5.80;99.90
39997;DHT22;25688;52.338;21.072;2024-02-21T07:16:58;5.80;99.90
39997;DHT22;25688;52.338;21.072;2024-02-21T07:19:24;5.90;99.90
39997;DHT22;25688;52.338;21.072;2024-02-21T07:21:49;5.90;99.90
39997;DHT22;25688;52.338;21.072;2024-02-21T07:24:15;6.00;99.90
39997;DHT22;25688;52.338;21.072;2024-02-21T07:26:42;6.00;99.90
39997;DHT22;25688;52.338;21.072;2024-02-21T07:29:08;6.00;99.90
39997;DHT22;25688;52.338;21.072;2024-02-21T07:31:42;6.10;99.90
39997;DHT22;25688;52.338;21.072;2024-02-21T07:34:08;6.10;99.90
39997;DHT22;25688;52.338;21.072;2024-02-21T07:36:34;6.10;99.90
39997;DHT22;25688;52.338;21.072;2024-02-21T07:39:00;6.20;99.90
39997;DHT22;25688;52.338;21.072;2024-02-21T07:41:26;6.20;99.90
39997;DHT22;25688;52.338;21.072;2024-02-21T07:43:52;6.20;99.90
39997;DHT22;25688;52.338;21.072;2024-02-21T07:46:18;6.20;99.90
39997;DHT22;25688;52.338;21.072;2024-02-21T07:48:47;6.30;99.90
39997;DHT22;25688;52.338;21.072;2024-02-21T07:51:13;6.40;99.90
39997;DHT22;25688;52.338;21.072;2024-02-21T07:53:39;6.40;99.90
39997;DHT22;25688;52.338;21.072;2024-02-21T07:56:13;6.40;99.90
39997;DHT22;25688;52.338;21.072;2024-02-21T07:58:40;6.40;99.90
39997;DHT22;25688;52.338;21.072;2024-02-21T08:01:06;6.40;99.90
39997;DHT22;25688;52.338;21.072;2024-02-21T08:03:31;6.50;99.90
39997;DHT22;25688;52.338;21.072;2024-02-21T08:05:57;6.60;99.90
39997;DHT22;25688;52.338;21.072;2024-02-21T08:08:23;6.60;99.90
39997;DHT22;25688;52.338;21.072;2024-02-21T08:10:52;6.70;99.90
39997;DHT22;25688;52.338;21.072;2024-02-21T08:13:18;6.70;99.90
39997;DHT22;25688;52.338;21.072;2024-02-21T08:15:43;6.80;99.90
39997;DHT22;25688;52.338;21.072;2024-02-21T08:18:09;6.90;99.90
39997;DHT22;25688;52.338;21.072;2024-02-21T08:20:35;7.00;99.90
39997;DHT22;25688;52.338;21.072;2024-02-21T08:23:01;7.10;99.90
39997;DHT22;25688;52.338;21.072;2024-02-21T08:25:27;7.30;99.90
39997;DHT22;25688;52.338;21.072;2024-02-21T08:27:58;7.40;99.90
39997;DHT22;25688;52.338;21.072;2024-02-21T08:30:24;7.50;99.90
39997;DHT22;25688;52.338;21.072;2024-02-21T08:32:50;7.50;99.90
39997;DHT22;25688;52.338;21.072;2024-02-21T08:35:16;7.60;99.90
39997;DHT22;25688;52.338;21.072;2024-02-21T08:37:44;7.50;99.90
39997;DHT22;25688;52.338;21.072;2024-02-21T08:40:12;7.50;99.90
39997;DHT22;25688;52.338;21.072;2024-02-21T08:42:41;7.40;99.90
39997;DHT22;25688;52.338;21.072;2024-02-21T08:45:08;7.40;99.90
39997;DHT22;25688;52.338;21.072;2024-02-21T08:47:33;7.30;99.90
39997;DHT22;25688;52.338;21.072;2024-02-21T08:50:01;7.30;99.90
39997;DHT22;25688;52.338;21.072;2024-02-21T08:52:27;7.30;99.90
39997;DHT22;25688;52.338;21.072;2024-02-21T08:54:53;7.30;99.90
39997;DHT22;25688;52.338;21.072;2024-02-21T08:57:19;7.40;99.90
39997;DHT22;25688;52.338;21.072;2024-02-21T08:59:45;7.50;99.90
39997;DHT22;25688;52.338;21.072;2024-02-21T09:02:13;7.50;99.90
39997;DHT22;25688;52.338;21.072;2024-02-21T09:04:39;7.60;99.90
39997;DHT22;25688;52.338;21.072;2024-02-21T09:07:05;7.60;99.90
39997;DHT22;25688;52.338;21.072;2024-02-21T09:09:30;7.60;99.90
39997;DHT22;25688;52.338;21.072;2024-02-21T09:11:58;7.60;99.90
39997;DHT22;25688;52.338;21.072;2024-02-21T09:14:31;7.70;99.90
39997;DHT22;25688;52.338;21.072;2024-02-21T09:16:57;7.70;99.90
39997;DHT22;25688;52.338;21.072;2024-02-21T09:19:23;7.70;99.90
39997;DHT22;25688;52.338;21.072;2024-02-21T09:21:49;7.90;99.90
39997;DHT22;25688;52.338;21.072;2024-02-21T09:24:14;8.00;99.90
39997;DHT22;25688;52.338;21.072;2024-02-21T09:26:40;8.00;99.90
39997;DHT22;25688;52.338;21.072;2024-02-21T09:29:06;8.00;99.90
39997;DHT22;25688;52.338;21.072;2024-02-21T09:31:32;7.90;99.90
39997;DHT22;25688;52.338;21.072;2024-02-21T09:33:58;7.80;99.90
39997;DHT22;25688;52.338;21.072;2024-02-21T09:36:23;7.70;99.90
39997;DHT22;25688;52.338;21.072;2024-02-21T09:38:49;7.70;99.90
39997;DHT22;25688;52.338;21.072;2024-02-21T09:41:17;7.70;99.90
39997;DHT22;25688;52.338;21.072;2024-02-21T09:43:43;7.60;99.90
39997;DHT22;25688;52.338;21.072;2024-02-21T09:46:18;7.70;99.90
39997;DHT22;25688;52.338;21.072;2024-02-21T09:51:45;7.80;99.90
39997;DHT22;25688;52.338;21.072;2024-02-21T09:54:11;7.80;99.90
39997;DHT22;25688;52.338;21.072;2024-02-21T09:56:37;7.80;99.90
39997;DHT22;25688;52.338;21.072;2024-02-21T09:59:04;7.90;99.90
39997;DHT22;25688;52.338;21.072;2024-02-21T10:01:31;8.00;99.90
39997;DHT22;25688;52.338;21.072;2024-02-21T10:03:57;7.90;99.90
39997;DHT22;25688;52.338;21.072;2024-02-21T10:06:23;7.80;99.90
39997;DHT22;25688;52.338;21.072;2024-02-21T10:08:53;7.70;99.90
39997;DHT22;25688;52.338;21.072;2024-02-21T10:11:26;7.70;99.90
39997;DHT22;25688;52.338;21.072;2024-02-21T10:14:05;7.60;99.90
39997;DHT22;25688;52.338;21.072;2024-02-21T10:16:32;7.60;99.90
39997;DHT22;25688;52.338;21.072;2024-02-21T10:18:59;7.70;99.90
39997;DHT22;25688;52.338;21.072;2024-02-21T10:21:24;7.70;99.90
39997;DHT22;25688;52.338;21.072;2024-02-21T10:23:51;7.70;99.90
39997;DHT22;25688;52.338;21.072;2024-02-21T10:26:20;7.80;99.90
39997;DHT22;25688;52.338;21.072;2024-02-21T10:28:47;7.80;99.90
39997;DHT22;25688;52.338;21.072;2024-02-21T10:31:27;8.00;99.90
39997;DHT22;25688;52.338;21.072;2024-02-21T10:34:02;8.00;99.90
39997;DHT22;25688;52.338;21.072;2024-02-21T10:36:31;8.00;99.90
39997;DHT22;25688;52.338;21.072;2024-02-21T10:38:57;8.10;99.90
39997;DHT22;25688;52.338;21.072;2024-02-21T10:41:24;8.20;99.90
39997;DHT22;25688;52.338;21.072;2024-02-21T10:43:51;8.30;99.90
39997;DHT22;25688;52.338;21.072;2024-02-21T10:46:23;8.50;99.90
39997;DHT22;25688;52.338;21.072;2024-02-21T10:51:47;8.60;99.90
39997;DHT22;25688;52.338;21.072;2024-02-21T10:56:51;8.50;99.90
39997;DHT22;25688;52.338;21.072;2024-02-21T10:59:19;8.40;99.90
39997;DHT22;25688;52.338;21.072;2024-02-21T11:01:45;8.30;99.90
39997;DHT22;25688;52.338;21.072;2024-02-21T11:04:11;8.20;99.90
39997;DHT22;25688;52.338;21.072;2024-02-21T11:06:39;8.20;99.90
39997;DHT22;25688;52.338;21.072;2024-02-21T11:09:07;8.10;99.90
39997;DHT22;25688;52.338;21.072;2024-02-21T11:11:38;8.10;99.90
39997;DHT22;25688;52.338;21.072;2024-02-21T11:14:09;8.10;99.90
39997;DHT22;25688;52.338;21.072;2024-02-21T11:16:37;8.10;99.90
39997;DHT22;25688;52.338;21.072;2024-02-21T11:19:19;8.00;99.90
39997;DHT22;25688;52.338;21.072;2024-02-21T11:21:46;8.00;99.90
39997;DHT22;25688;52.338;21.072;2024-02-21T11:24:13;8.10;99.90
39997;DHT22;25688;52.338;21.072;2024-02-21T11:26:40;8.10;99.90
39997;DHT22;25688;52.338;21.072;2024-02-21T11:29:07;8.10;99.90
39997;DHT22;25688;52.338;21.072;2024-02-21T11:31:42;8.10;99.90
39997;DHT22;25688;52.338;21.072;2024-02-21T11:34:10;8.10;99.90
39997;DHT22;25688;52.338;21.072;2024-02-21T11:36:36;8.10;99.90
39997;DHT22;25688;52.338;21.072;2024-02-21T11:39:11;8.10;99.90
39997;DHT22;25688;52.338;21.072;2024-02-21T11:41:37;8.10;99.90
39997;DHT22;25688;52.338;21.072;2024-02-21T11:44:02;8.00;99.90
39997;DHT22;25688;52.338;21.072;2024-02-21T11:46:29;7.90;99.90
39997;DHT22;25688;52.338;21.072;2024-02-21T11:48:55;7.90;99.90
39997;DHT22;25688;52.338;21.072;2024-02-21T11:51:25;7.80;99.90
39997;DHT22;25688;52.338;21.072;2024-02-21T11:53:52;7.80;99.90
39997;DHT22;25688;52.338;21.072;2024-02-21T11:56:18;7.80;99.90
39997;DHT22;25688;52.338;21.072;2024-02-21T11:58:46;7.80;99.90
39997;DHT22;25688;52.338;21.072;2024-02-21T12:01:13;7.70;99.90
39997;DHT22;25688;52.338;21.072;2024-02-21T12:03:39;7.70;99.90
39997;DHT22;25688;52.338;21.072;2024-02-21T12:06:07;7.70;99.90
39997;DHT22;25688;52.338;21.072;2024-02-21T12:08:43;7.70;99.90
39997;DHT22;25688;52.338;21.072;2024-02-21T12:11:22;7.60;99.90
39997;DHT22;25688;52.338;21.072;2024-02-21T12:14:01;7.60;99.90
39997;DHT22;25688;52.338;21.072;2024-02-21T12:16:34;7.50;99.90
39997;DHT22;25688;52.338;21.072;2024-02-21T12:19:00;7.50;99.90
39997;DHT22;25688;52.338;21.072;2024-02-21T12:21:33;7.50;99.90
39997;DHT22;25688;52.338;21.072;2024-02-21T12:24:33;7.50;99.90
39997;DHT22;25688;52.338;21.072;2024-02-21T12:26:59;7.50;99.90
39997;DHT22;25688;52.338;21.072;2024-02-21T12:29:25;7.50;99.90
39997;DHT22;25688;52.338;21.072;2024-02-21T12:31:51;7.50;99.90
39997;DHT22;25688;52.338;21.072;2024-02-21T12:34:17;7.50;99.90
39997;DHT22;25688;52.338;21.072;2024-02-21T12:36:44;7.50;99.90
39997;DHT22;25688;52.338;21.072;2024-02-21T12:39:11;7.40;99.90
39997;DHT22;25688;52.338;21.072;2024-02-21T12:41:37;7.50;99.90
39997;DHT22;25688;52.338;21.072;2024-02-21T12:44:12;7.50;99.90
39997;DHT22;25688;52.338;21.072;2024-02-21T12:46:38;7.50;99.90
39997;DHT22;25688;52.338;21.072;2024-02-21T12:49:07;7.50;99.90
39997;DHT22;25688;52.338;21.072;2024-02-21T12:51:34;7.50;99.90
39997;DHT22;25688;52.338;21.072;2024-02-21T12:54:00;7.40;99.90
39997;DHT22;25688;52.338;21.072;2024-02-21T12:56:26;7.40;99.90
39997;DHT22;25688;52.338;21.072;2024-02-21T12:58:56;7.40;99.90
39997;DHT22;25688;52.338;21.072;2024-02-21T13:01:22;7.40;99.90
39997;DHT22;25688;52.338;21.072;2024-02-21T13:03:48;7.40;99.90
39997;DHT22;25688;52.338;21.072;2024-02-21T13:06:14;7.40;99.90
39997;DHT22;25688;52.338;21.072;2024-02-21T13:08:40;7.40;99.90
39997;DHT22;25688;52.338;21.072;2024-02-21T13:11:06;7.40;99.90
39997;DHT22;25688;52.338;21.072;2024-02-21T13:13:32;7.40;99.90
39997;DHT22;25688;52.338;21.072;2024-02-21T13:15:58;7.50;99.90
39997;DHT22;25688;52.338;21.072;2024-02-21T13:18:25;7.40;99.90
39997;DHT22;25688;52.338;21.072;2024-02-21T13:20:50;7.50;99.90
39997;DHT22;25688;52.338;21.072;2024-02-21T13:23:16;7.40;99.90
39997;DHT22;25688;52.338;21.072;2024-02-21T13:25:42;7.50;99.90
39997;DHT22;25688;52.338;21.072;2024-02-21T13:28:10;7.50;99.90
39997;DHT22;25688;52.338;21.072;2024-02-21T13:30:35;7.50;99.90
39997;DHT22;25688;52.338;21.072;2024-02-21T13:33:01;7.50;99.90
39997;DHT22;25688;52.338;21.072;2024-02-21T13:35:28;7.40;99.90
39997;DHT22;25688;52.338;21.072;2024-02-21T13:37:54;7.40;99.90
39997;DHT22;25688;52.338;21.072;2024-02-21T13:40:20;7.30;99.90
39997;DHT22;25688;52.338;21.072;2024-02-21T13:42:46;7.30;99.90
39997;DHT22;25688;52.338;21.072;2024-02-21T13:45:12;7.20;99.90
39997;DHT22;25688;52.338;21.072;2024-02-21T13:47:37;7.30;99.90
39997;DHT22;25688;52.338;21.072;2024-02-21T13:50:05;7.20;99.90
39997;DHT22;25688;52.338;21.072;2024-02-21T13:52:34;7.30;99.90
39997;DHT22;25688;52.338;21.072;2024-02-21T13:55:00;7.30;99.90
39997;DHT22;25688;52.338;21.072;2024-02-21T13:57:26;7.30;99.90
39997;DHT22;25688;52.338;21.072;2024-02-21T13:59:52;7.30;99.90
39997;DHT22;25688;52.338;21.072;2024-02-21T14:02:18;7.30;99.90
39997;DHT22;25688;52.338;21.072;2024-02-21T14:04:44;7.30;99.90
39997;DHT22;25688;52.338;21.072;2024-02-21T14:07:09;7.30;99.90
39997;DHT22;25688;52.338;21.072;2024-02-21T14:09:35;7.40;99.90
39997;DHT22;25688;52.338;21.072;2024-02-21T14:12:02;7.40;99.90
39997;DHT22;25688;52.338;21.072;2024-02-21T14:14:27;7.40;99.90
39997;DHT22;25688;52.338;21.072;2024-02-21T14:16:53;7.40;99.90
39997;DHT22;25688;52.338;21.072;2024-02-21T14:19:19;7.40;99.90
39997;DHT22;25688;52.338;21.072;2024-02-21T14:21:45;7.40;99.90
39997;DHT22;25688;52.338;21.072;2024-02-21T14:24:12;7.40;99.90
39997;DHT22;25688;52.338;21.072;2024-02-21T14:26:38;7.40;99.90
39997;DHT22;25688;52.338;21.072;2024-02-21T14:29:07;7.40;99.90
39997;DHT22;25688;52.338;21.072;2024-02-21T14:31:33;7.40;99.90
39997;DHT22;25688;52.338;21.072;2024-02-21T14:33:59;7.40;99.90
39997;DHT22;25688;52.338;21.072;2024-02-21T14:36:26;7.30;99.90
39997;DHT22;25688;52.338;21.072;2024-02-21T14:38:52;7.30;99.90
39997;DHT22;25688;52.338;21.072;2024-02-21T14:41:18;7.30;99.90
39997;DHT22;25688;52.338;21.072;2024-02-21T14:43:44;7.30;99.90
39997;DHT22;25688;52.338;21.072;2024-02-21T14:46:10;7.30;99.90
39997;DHT22;25688;52.338;21.072;2024-02-21T14:48:38;7.30;99.90
39997;DHT22;25688;52.338;21.072;2024-02-21T14:51:04;7.20;99.90
39997;DHT22;25688;52.338;21.072;2024-02-21T14:53:30;7.20;99.90
39997;DHT22;25688;52.338;21.072;2024-02-21T14:55:56;7.20;99.90
39997;DHT22;25688;52.338;21.072;2024-02-21T14:58:25;7.20;99.90
39997;DHT22;25688;52.338;21.072;2024-02-21T15:00:52;7.20;99.90
39997;DHT22;25688;52.338;21.072;2024-02-21T15:03:19;7.20;99.90
39997;DHT22;25688;52.338;21.072;2024-02-21T15:05:46;7.20;99.90
39997;DHT22;25688;52.338;21.072;2024-02-21T15:08:12;7.20;99.90
39997;DHT22;25688;52.338;21.072;2024-02-21T15:10:38;7.20;99.90
39997;DHT22;25688;52.338;21.072;2024-02-21T15:13:04;7.10;99.90
39997;DHT22;25688;52.338;21.072;2024-02-21T15:15:30;7.20;99.90
39997;DHT22;25688;52.338;21.072;2024-02-21T15:17:56;7.10;99.90
39997;DHT22;25688;52.338;21.072;2024-02-21T15:20:22;7.10;99.90
39997;DHT22;25688;52.338;21.072;2024-02-21T15:22:47;7.10;99.90
39997;DHT22;25688;52.338;21.072;2024-02-21T15:25:14;7.10;99.90
39997;DHT22;25688;52.338;21.072;2024-02-21T15:27:46;7.10;99.90
39997;DHT22;25688;52.338;21.072;2024-02-21T15:30:12;7.10;99.90
39997;DHT22;25688;52.338;21.072;2024-02-21T15:32:39;7.10;99.90
39997;DHT22;25688;52.338;21.072;2024-02-21T15:35:06;7.10;99.90
39997;DHT22;25688;52.338;21.072;2024-02-21T15:37:35;7.10;99.90
39997;DHT22;25688;52.338;21.072;2024-02-21T15:40:00;7.10;99.90
39997;DHT22;25688;52.338;21.072;2024-02-21T15:42:26;7.10;99.90
39997;DHT22;25688;52.338;21.072;2024-02-21T15:44:52;7.10;99.90
39997;DHT22;25688;52.338;21.072;2024-02-21T15:47:18;7.10;99.90
39997;DHT22;25688;52.338;21.072;2024-02-21T15:49:52;7.10;99.90
39997;DHT22;25688;52.338;21.072;2024-02-21T15:52:17;7.10;99.90
39997;DHT22;25688;52.338;21.072;2024-02-21T15:54:43;7.10;99.90
39997;DHT22;25688;52.338;21.072;2024-02-21T15:57:09;7.10;99.90
39997;DHT22;25688;52.338;21.072;2024-02-21T15:59:35;7.10;99.90
39997;DHT22;25688;52.338;21.072;2024-02-21T16:02:01;7.10;99.90
39997;DHT22;25688;52.338;21.072;2024-02-21T16:04:27;7.10;99.90
39997;DHT22;25688;52.338;21.072;2024-02-21T16:07:00;7.10;99.90
39997;DHT22;25688;52.338;21.072;2024-02-21T16:09:29;7.10;99.90
39997;DHT22;25688;52.338;21.072;2024-02-21T16:11:56;7.10;99.90
39997;DHT22;25688;52.338;21.072;2024-02-21T16:14:22;7.10;99.90
39997;DHT22;25688;52.338;21.072;2024-02-21T16:16:48;7.10;99.90
39997;DHT22;25688;52.338;21.072;2024-02-21T16:19:15;7.10;99.90
39997;DHT22;25688;52.338;21.072;2024-02-21T16:21:41;7.10;99.90
39997;DHT22;25688;52.338;21.072;2024-02-21T16:24:08;7.10;99.90
39997;DHT22;25688;52.338;21.072;2024-02-21T16:26:38;7.10;99.90
39997;DHT22;25688;52.338;21.072;2024-02-21T16:29:07;7.10;99.90
39997;DHT22;25688;52.338;21.072;2024-02-21T16:31:33;7.10;99.90
39997;DHT22;25688;52.338;21.072;2024-02-21T16:34:01;7.20;99.90
39997;DHT22;25688;52.338;21.072;2024-02-21T16:36:26;7.20;99.90
39997;DHT22;25688;52.338;21.072;2024-02-21T16:38:52;7.20;99.90
39997;DHT22;25688;52.338;21.072;2024-02-21T16:41:22;7.20;99.90
39997;DHT22;25688;52.338;21.072;2024-02-21T16:43:48;7.20;99.90
39997;DHT22;25688;52.338;21.072;2024-02-21T16:46:14;7.20;99.90
39997;DHT22;25688;52.338;21.072;2024-02-21T16:48:41;7.20;99.90
39997;DHT22;25688;52.338;21.072;2024-02-21T16:51:07;7.20;99.90
39997;DHT22;25688;52.338;21.072;2024-02-21T16:53:33;7.20;99.90
39997;DHT22;25688;52.338;21.072;2024-02-21T16:55:59;7.20;99.90
39997;DHT22;25688;52.338;21.072;2024-02-21T16:58:25;7.20;99.90
39997;DHT22;25688;52.338;21.072;2024-02-21T17:00:51;7.20;99.90
39997;DHT22;25688;52.338;21.072;2024-02-21T17:03:17;7.20;99.90
39997;DHT22;25688;52.338;21.072;2024-02-21T17:05:48;7.10;99.90